Time;durP1;ratioP1;P1;durP2;ratioP2;P2;SDS_P1;SDS_P2;PMS_P1;PMS_P2;Temp;Humidity;BMP_temperature;BMP_pressure;BME280_temperature;BME280_humidity;BME280_pressure;Samples;Min_cycle;Max_cycle;Signal;HPM_P1;HPM_P2
2023/01/13 00:00:49;;;;;;;14.30;4.40;;;7.20;99.90;;;;;;10315762;28;20208;-84
2023/01/13 00:06:13;;;;;;;5.50;4.13;;;7.20;99.90;;;;;;10329954;28;20207;-80
2023/01/13 00:11:34;;;;;;;5.83;4.03;;;7.20;99.90;;;;;;10345934;28;20276;-80
2023/01/13 00:16:55;;;;;;;7.53;4.53;;;7.30;99.90;;;;;;10339978;28;20231;-80
2023/01/13 00:22:17;;;;;;;6.97;4.20;;;7.20;99.90;;;;;;10329097;28;20223;-83
2023/01/13 00:27:38;;;;;;;9.73;5.23;;;7.30;99.90;;;;;;10365391;28;20253;-84
2023/01/13 00:32:59;;;;;;;6.70;5.00;;;7.30;99.90;;;;;;10351182;28;20221;-84
2023/01/13 00:38:20;;;;;;;8.33;5.07;;;7.30;99.90;;;;;;10304770;28;20197;-82
2023/01/13 00:43:42;;;;;;;7.60;5.33;;;7.40;99.90;;;;;;10291183;28;20193;-81
2023/01/13 00:49:03;;;;;;;8.33;5.10;;;7.30;99.90;;;;;;10300256;28;20209;-83
2023/01/13 00:54:25;;;;;;;8.80;5.43;;;7.30;99.90;;;;;;10286708;28;20665;-80
2023/01/13 00:59:47;;;;;;;11.43;4.90;;;7.40;99.90;;;;;;10341976;28;20298;-80
2023/01/13 01:05:09;;;;;;;9.77;5.23;;;7.30;99.90;;;;;;10328992;28;20208;-80
2023/01/13 01:10:31;;;;;;;7.77;5.03;;;7.30;99.90;;;;;;10341531;28;20200;-83
2023/01/13 01:15:54;;;;;;;6.83;4.57;;;7.40;99.90;;;;;;10341938;28;20234;-83
2023/01/13 01:21:16;;;;;;;9.03;4.90;;;7.30;99.90;;;;;;10395294;28;20417;-81
2023/01/13 01:26:37;;;;;;;7.30;4.60;;;7.30;99.90;;;;;;10421602;28;20214;-82
2023/01/13 01:31:58;;;;;;;6.77;5.20;;;7.30;99.90;;;;;;10385984;28;20230;-84
2023/01/13 01:37:20;;;;;;;6.20;4.00;;;7.40;99.90;;;;;;10387903;28;20241;-85
2023/01/13 01:48:21;;;;;;;3.87;3.23;;;7.30;99.90;;;;;;10378200;28;20586;-80
2023/01/13 01:53:42;;;;;;;5.97;4.57;;;7.30;99.90;;;;;;10365889;28;20231;-82
2023/01/13 01:59:03;;;;;;;5.13;3.50;;;7.30;99.90;;;;;;10366364;28;20262;-81
2023/01/13 02:04:30;;;;;;;6.00;3.93;;;7.30;99.90;;;;;;10367685;28;20255;-80
2023/01/13 02:09:54;;;;;;;3.87;3.37;;;7.30;99.90;;;;;;10325453;28;20226;-81
2023/01/13 02:15:18;;;;;;;10.83;3.30;;;7.30;99.90;;;;;;10336557;28;20248;-80
2023/01/13 02:20:43;;;;;;;3.77;3.37;;;7.40;99.90;;;;;;10372953;28;20220;-81
2023/01/13 02:26:23;;;;;;;3.77;2.97;;;7.30;99.90;;;;;;10402870;28;20224;-81
2023/01/13 02:31:47;;;;;;;4.53;3.00;;;7.40;99.90;;;;;;10419267;28;20211;-82
2023/01/13 02:37:34;;;;;;;3.10;2.70;;;7.40;99.90;;;;;;10379828;28;20232;-80
2023/01/13 02:48:48;;;;;;;3.57;3.10;;;7.40;99.90;;;;;;10376413;28;20195;-84
2023/01/13 02:54:16;;;;;;;5.90;5.30;;;7.50;99.90;;;;;;10324872;28;20329;-82
2023/01/13 02:59:39;;;;;;;6.27;3.40;;;7.40;99.90;;;;;;10288907;28;20233;-83
2023/01/13 03:05:00;;;;;;;4.20;2.97;;;7.50;99.90;;;;;;10301134;28;20208;-83
2023/01/13 03:10:46;;;;;;;4.73;2.77;;;7.50;99.90;;;;;;10340811;28;20228;-83
2023/01/13 03:16:22;;;;;;;6.20;3.63;;;7.50;99.90;;;;;;10344378;28;20232;-86
2023/01/13 03:22:19;;;;;;;6.80;3.97;;;7.50;99.90;;;;;;10349845;28;20241;-86
2023/01/13 03:28:03;;;;;;;7.60;3.60;;;7.50;99.90;;;;;;10193545;29;20202;-84
2023/01/13 03:33:50;;;;;;;3.00;2.27;;;7.50;99.90;;;;;;10218750;29;20342;-84
2023/01/13 03:39:16;;;;;;;3.60;3.07;;;7.50;99.90;;;;;;10180722;29;20304;-86
2023/01/13 03:44:52;;;;;;;3.53;3.03;;;7.50;99.90;;;;;;10185944;29;20215;-82
2023/01/13 03:50:38;;;;;;;2.17;1.97;;;7.50;99.90;;;;;;10185328;29;20207;-87
2023/01/13 03:56:30;;;;;;;3.40;1.90;;;7.50;99.90;;;;;;10190907;29;20269;-83
2023/01/13 04:01:55;;;;;;;2.07;1.50;;;7.50;99.90;;;;;;10261251;28;20263;-81
2023/01/13 04:07:37;;;;;;;1.60;1.50;;;7.60;99.90;;;;;;10356882;28;20211;-80
2023/01/13 04:13:02;;;;;;;3.47;2.50;;;7.60;99.90;;;;;;10370742;28;20202;-85
2023/01/13 04:18:26;;;;;;;7.53;2.60;;;7.60;99.90;;;;;;10370124;28;20457;-86
2023/01/13 04:23:50;;;;;;;3.77;2.33;;;7.60;99.90;;;;;;10369102;28;20220;-85
2023/01/13 04:29:11;;;;;;;2.70;2.43;;;7.60;99.90;;;;;;10409821;28;20241;-85
2023/01/13 04:34:35;;;;;;;2.10;1.90;;;7.70;99.90;;;;;;10396123;28;20265;-84
2023/01/13 04:39:57;;;;;;;3.00;2.17;;;7.70;99.90;;;;;;10324076;28;20211;-84
2023/01/13 04:45:18;;;;;;;2.53;1.50;;;7.70;99.90;;;;;;10331747;28;20208;-84
2023/01/13 04:50:39;;;;;;;2.10;1.57;;;7.80;99.90;;;;;;10344859;28;20220;-84
2023/01/13 04:56:00;;;;;;;1.40;1.30;;;7.80;99.90;;;;;;10359776;28;20330;-87
2023/01/13 05:01:22;;;;;;;1.83;1.73;;;7.80;99.90;;;;;;10344151;28;20513;-85
2023/01/13 05:06:43;;;;;;;4.87;3.47;;;7.80;99.90;;;;;;10327818;28;20213;-84
2023/01/13 05:17:45;;;;;;;1.67;1.33;;;7.90;99.90;;;;;;10358334;28;20240;-85
2023/01/13 05:28:46;;;;;;;2.40;1.93;;;7.90;99.90;;;;;;10373075;28;20224;-87
2023/01/13 05:34:08;;;;;;;1.40;1.30;;;7.90;99.90;;;;;;10360282;28;20227;-86
2023/01/13 05:43:18;;;;;;;2.20;1.50;;;7.90;99.90;;;;;;10319355;28;20395;-85
2023/01/13 05:45:11;;;;;;;2.80;2.00;;;7.80;99.90;;;;;;10328974;28;20229;-86
2023/01/13 05:50:32;;;;;;;2.33;1.67;;;7.80;99.90;;;;;;10334680;28;20237;-86
2023/01/13 05:55:58;;;;;;;2.33;1.73;;;7.90;99.90;;;;;;10320732;28;20430;-84
2023/01/13 06:01:19;;;;;;;2.40;1.47;;;7.90;99.90;;;;;;10312812;28;20301;-86
2023/01/13 06:06:42;;;;;;;4.00;3.33;;;7.90;99.90;;;;;;10326315;28;20200;-83
2023/01/13 06:12:03;;;;;;;9.97;8.17;;;7.90;99.90;;;;;;10325641;28;20226;-83
2023/01/13 06:17:24;;;;;;;5.37;3.90;;;7.90;99.90;;;;;;10354833;28;20231;-83
2023/01/13 06:22:48;;;;;;;2.67;2.30;;;7.90;99.90;;;;;;10382703;28;20237;-82
2023/01/13 06:28:09;;;;;;;2.93;1.90;;;7.90;99.90;;;;;;10361841;28;20192;-84
2023/01/13 06:33:44;;;;;;;9.83;4.93;;;7.90;99.90;;;;;;10378916;28;20227;-85
2023/01/13 06:39:07;;;;;;;12.63;5.47;;;7.90;99.90;;;;;;10332473;28;20415;-85
2023/01/13 06:44:29;;;;;;;10.10;4.83;;;7.90;99.90;;;;;;10312138;28;20205;-81
2023/01/13 06:49:50;;;;;;;5.77;3.97;;;8.00;99.90;;;;;;10339505;28;20197;-87
2023/01/13 06:55:11;;;;;;;4.90;3.17;;;8.00;99.90;;;;;;10315057;28;20259;-86
2023/01/13 07:00:36;;;;;;;5.23;3.33;;;8.00;99.90;;;;;;10347039;28;20197;-85
2023/01/13 07:05:57;;;;;;;3.70;2.63;;;8.00;99.90;;;;;;10333554;28;20209;-85
2023/01/13 07:11:19;;;;;;;4.70;3.93;;;8.10;99.90;;;;;;10346101;28;20210;-85
2023/01/13 07:16:43;;;;;;;5.00;3.47;;;8.10;99.90;;;;;;10333511;28;20232;-86
2023/01/13 07:22:04;;;;;;;4.57;2.80;;;8.00;99.90;;;;;;10336636;28;20200;-85
2023/01/13 07:27:26;;;;;;;4.30;2.80;;;8.10;99.90;;;;;;10378233;28;20454;-84
2023/01/13 07:32:47;;;;;;;7.60;3.80;;;8.10;99.90;;;;;;10383267;28;20188;-85
2023/01/13 07:38:08;;;;;;;5.30;4.80;;;8.20;99.90;;;;;;10296898;28;20239;-86
2023/01/13 07:43:33;;;;;;;7.43;4.10;;;8.10;99.90;;;;;;10392850;28;20480;-84
2023/01/13 07:48:54;;;;;;;6.63;5.20;;;8.20;99.90;;;;;;10346368;28;20491;-82
2023/01/13 07:54:15;;;;;;;10.27;5.37;;;8.10;99.90;;;;;;10345425;28;20573;-85
2023/01/13 07:59:39;;;;;;;9.23;6.10;;;8.10;99.90;;;;;;10380739;28;20244;-83
2023/01/13 08:05:00;;;;;;;6.07;5.47;;;8.20;99.90;;;;;;10373314;28;20207;-86
2023/01/13 08:10:22;;;;;;;9.03;4.23;;;8.20;99.90;;;;;;10387500;28;20236;-83
2023/01/13 08:15:43;;;;;;;16.10;12.00;;;8.20;99.90;;;;;;10380090;28;20225;-85
2023/01/13 08:21:13;;;;;;;16.70;7.13;;;8.20;99.90;;;;;;10316550;28;20393;-84
2023/01/13 08:26:34;;;;;;;18.23;8.27;;;8.20;99.90;;;;;;10359580;28;20226;-84
2023/01/13 08:31:56;;;;;;;8.63;5.27;;;8.20;99.90;;;;;;10359843;28;20241;-84
2023/01/13 08:37:17;;;;;;;6.73;4.67;;;8.30;99.90;;;;;;10451717;23;20507;-85
2023/01/13 08:42:42;;;;;;;18.27;8.30;;;8.30;99.90;;;;;;10410658;28;20231;-85
2023/01/13 08:48:03;;;;;;;9.77;6.17;;;8.20;99.90;;;;;;10384219;28;20437;-85
2023/01/13 08:53:25;;;;;;;4.80;3.40;;;8.30;99.90;;;;;;10407731;28;20199;-88
2023/01/13 08:58:46;;;;;;;9.47;5.77;;;8.10;99.90;;;;;;10421410;28;20204;-88
2023/01/13 09:04:18;;;;;;;3.63;2.80;;;8.20;99.90;;;;;;10406653;28;20207;-84
2023/01/13 09:09:40;;;;;;;7.63;4.63;;;8.20;99.90;;;;;;10392022;28;20211;-84
2023/01/13 09:15:01;;;;;;;9.40;5.20;;;8.20;99.90;;;;;;10411725;28;20235;-84
2023/01/13 09:20:23;;;;;;;5.60;4.00;;;8.30;99.90;;;;;;10405688;28;20303;-84
2023/01/13 09:25:44;;;;;;;4.70;3.20;;;8.20;99.90;;;;;;10358330;28;20204;-86
2023/01/13 09:31:06;;;;;;;4.00;3.13;;;8.30;99.90;;;;;;10403259;28;20210;-83
2023/01/13 09:36:27;;;;;;;7.33;4.77;;;8.30;99.90;;;;;;10367739;28;20244;-84
2023/01/13 09:47:55;;;;;;;10.47;6.47;;;8.40;99.90;;;;;;10454988;23;20260;-85
2023/01/13 09:53:27;;;;;;;8.93;7.10;;;8.40;99.90;;;;;;10336941;28;20209;-84
2023/01/13 09:58:48;;;;;;;12.00;8.10;;;8.40;99.90;;;;;;10363809;28;20240;-88
2023/01/13 10:04:21;;;;;;;10.37;6.23;;;8.60;99.90;;;;;;10362336;23;20238;-91
2023/01/13 10:16:40;;;;;;;9.87;5.80;;;8.60;99.90;;;;;;10366093;28;20288;-87
2023/01/13 10:22:39;;;;;;;7.17;4.40;;;8.70;99.90;;;;;;10363827;28;20197;-86
2023/01/13 10:28:12;;;;;;;5.03;3.37;;;8.80;99.90;;;;;;10355107;28;20217;-85
2023/01/13 10:33:33;;;;;;;9.37;7.50;;;9.10;99.90;;;;;;10357614;28;20253;-88
2023/01/13 10:39:14;;;;;;;5.57;4.43;;;9.30;99.90;;;;;;10363627;28;20209;-85
2023/01/13 10:44:46;;;;;;;3.73;2.70;;;9.30;99.90;;;;;;10374192;28;20223;-84
2023/01/13 10:50:07;;;;;;;7.63;5.03;;;9.30;99.90;;;;;;10356342;28;20209;-84
2023/01/13 10:55:37;;;;;;;4.13;3.17;;;9.30;99.90;;;;;;10350702;28;20254;-83
2023/01/13 11:06:45;;;;;;;3.77;2.73;;;9.30;99.90;;;;;;10227455;29;20533;-81
2023/01/13 11:12:30;;;;;;;4.47;3.10;;;9.20;99.90;;;;;;10220176;29;20234;-84
2023/01/13 11:17:59;;;;;;;3.87;2.87;;;9.10;99.90;;;;;;10234389;29;20625;-84
2023/01/13 11:23:33;;;;;;;8.63;4.87;;;9.20;99.90;;;;;;10230434;29;20532;-86
2023/01/13 11:29:04;;;;;;;4.50;3.30;;;9.20;99.90;;;;;;10215742;29;20209;-87
2023/01/13 11:34:38;;;;;;;8.30;4.53;;;9.10;99.90;;;;;;10197650;29;20240;-83
2023/01/13 11:40:19;;;;;;;5.93;4.13;;;9.20;99.90;;;;;;10214716;29;20466;-81
2023/01/13 11:45:54;;;;;;;6.87;3.90;;;9.30;99.90;;;;;;10219845;29;20230;-87
2023/01/13 11:51:47;;;;;;;14.30;6.20;;;9.40;99.90;;;;;;10210218;29;20266;-84
2023/01/13 11:57:41;;;;;;;5.40;2.77;;;9.20;99.90;;;;;;10221919;29;20235;-86
2023/01/13 12:03:32;;;;;;;13.93;9.13;;;9.10;99.90;;;;;;10203449;29;20536;-84
2023/01/13 12:08:59;;;;;;;22.50;13.70;;;9.00;99.90;;;;;;10206349;29;20205;-87
2023/01/13 12:14:49;;;;;;;10.37;7.13;;;9.00;99.90;;;;;;10184203;29;20509;-85
2023/01/13 12:20:33;;;;;;;5.87;3.27;;;8.90;99.90;;;;;;10186126;29;20276;-82
2023/01/13 12:25:59;;;;;;;6.30;4.50;;;8.80;99.90;;;;;;10167053;29;20311;-83
2023/01/13 12:31:22;;;;;;;22.20;15.20;;;8.80;99.90;;;;;;10197847;29;20577;-87
2023/01/13 12:36:53;;;;;;;10.83;5.80;;;8.70;99.90;;;;;;10201698;29;20255;-88
2023/01/13 12:48:00;;;;;;;9.10;3.83;;;8.70;99.90;;;;;;10214526;29;20212;-86
2023/01/13 12:53:33;;;;;;;4.93;3.37;;;8.70;99.90;;;;;;10200022;29;20499;-87
2023/01/13 12:59:20;;;;;;;8.23;5.17;;;8.60;99.90;;;;;;10178761;29;20243;-84
2023/01/13 13:04:42;;;;;;;14.40;7.93;;;8.60;99.90;;;;;;10196405;29;20342;-87
2023/01/13 13:10:18;;;;;;;20.77;8.47;;;8.50;99.90;;;;;;10211016;29;20486;-88
2023/01/13 13:15:40;;;;;;;12.23;4.80;;;8.50;99.90;;;;;;10209251;29;20291;-83
2023/01/13 13:21:08;;;;;;;8.90;4.20;;;8.60;99.90;;;;;;10193836;29;20271;-80
2023/01/13 13:26:37;;;;;;;17.30;6.10;;;8.50;99.90;;;;;;10198622;29;20211;-81
2023/01/13 13:32:20;;;;;;;11.50;5.30;;;8.50;99.90;;;;;;10210061;29;20380;-88
2023/01/13 13:49:55;;;;;;;15.60;9.33;;;8.30;99.90;;;;;;10210468;29;20557;-87
2023/01/13 13:55:23;;;;;;;8.20;4.07;;;8.30;99.90;;;;;;10151039;29;20294;-82
2023/01/13 14:00:46;;;;;;;10.53;4.27;;;8.30;99.90;;;;;;10270321;23;20312;-81
2023/01/13 14:06:22;;;;;;;14.73;7.13;;;8.20;99.90;;;;;;10374262;28;20396;-86
2023/01/13 14:12:05;;;;;;;97.77;59.03;;;8.20;99.90;;;;;;10348994;28;20201;-84
2023/01/13 14:17:29;;;;;;;13.50;6.87;;;8.10;99.90;;;;;;10356912;28;20227;-82
2023/01/13 14:22:52;;;;;;;16.53;7.23;;;7.90;99.90;;;;;;10346317;28;20486;-85
2023/01/13 14:28:55;;;;;;;21.30;7.03;;;7.70;99.90;;;;;;10394338;28;20394;-90
2023/01/13 14:34:18;;;;;;;16.77;6.73;;;7.50;99.90;;;;;;10360430;28;20259;-83
2023/01/13 14:39:40;;;;;;;12.13;6.70;;;7.40;99.90;;;;;;10379299;28;20287;-88
2023/01/13 14:45:03;;;;;;;13.13;4.87;;;7.40;99.90;;;;;;10348127;28;20287;-84
2023/01/13 14:50:30;;;;;;;12.23;3.73;;;7.30;99.90;;;;;;10370541;28;20281;-83
2023/01/13 14:55:51;;;;;;;37.47;13.10;;;7.40;99.90;;;;;;10396766;28;20311;-87
2023/01/13 15:01:28;;;;;;;21.27;9.80;;;7.40;99.90;;;;;;10361130;28;20239;-87
2023/01/13 15:06:54;;;;;;;21.13;9.80;;;7.20;99.90;;;;;;10361634;28;20317;-85
2023/01/13 15:12:38;;;;;;;14.33;7.43;;;7.30;99.90;;;;;;10362314;28;20279;-83
2023/01/13 15:18:12;;;;;;;19.93;9.53;;;7.30;99.90;;;;;;10386436;28;20314;-84
2023/01/13 15:23:33;;;;;;;10.97;6.30;;;7.40;99.90;;;;;;10424140;28;20238;-84
2023/01/13 15:28:57;;;;;;;23.00;9.13;;;7.40;99.90;;;;;;10370866;28;20215;-82
2023/01/13 15:34:19;;;;;;;13.67;5.87;;;7.30;99.90;;;;;;10346916;28;20254;-88
2023/01/13 15:39:42;;;;;;;10.90;4.63;;;7.30;99.90;;;;;;10366694;28;20238;-84
2023/01/13 15:50:44;;;;;;;7.07;3.80;;;7.20;99.90;;;;;;10428155;23;20246;-83
2023/01/13 15:56:24;;;;;;;17.57;7.27;;;7.10;99.90;;;;;;10365406;28;20250;-83
2023/01/13 16:01:45;;;;;;;14.03;6.43;;;7.10;99.90;;;;;;10371566;28;20208;-82
2023/01/13 16:07:14;;;;;;;10.93;6.17;;;7.10;99.90;;;;;;10373417;28;20212;-83
2023/01/13 16:12:36;;;;;;;8.57;5.80;;;7.00;99.90;;;;;;10390626;28;20354;-82
2023/01/13 16:18:02;;;;;;;12.97;4.83;;;7.00;99.90;;;;;;10361670;28;20379;-84
2023/01/13 16:23:23;;;;;;;13.87;5.70;;;7.00;99.90;;;;;;10338215;23;20259;-83
2023/01/13 16:28:45;;;;;;;12.70;6.07;;;7.00;99.90;;;;;;10322907;28;20204;-80
2023/01/13 16:34:06;;;;;;;14.37;7.23;;;6.90;99.90;;;;;;10318507;28;20280;-80
2023/01/13 16:39:28;;;;;;;19.07;9.23;;;6.90;99.90;;;;;;10334312;28;20222;-81
2023/01/13 16:44:49;;;;;;;20.20;9.80;;;6.90;99.90;;;;;;10330132;28;20226;-81
2023/01/13 16:50:34;;;;;;;35.53;15.17;;;6.90;99.90;;;;;;10317188;28;20205;-84
2023/01/13 16:55:55;;;;;;;41.63;20.13;;;7.00;99.90;;;;;;10330389;28;20254;-80
2023/01/13 17:01:20;;;;;;;19.30;10.10;;;6.90;99.90;;;;;;10330879;28;20207;-80
2023/01/13 17:06:49;;;;;;;13.57;7.27;;;6.90;99.90;;;;;;10331545;28;20208;-79
2023/01/13 17:12:11;;;;;;;19.33;10.83;;;6.90;99.90;;;;;;10329913;28;20213;-79
2023/01/13 17:17:32;;;;;;;14.93;7.53;;;6.80;99.90;;;;;;10329181;28;20279;-79
2023/01/13 17:22:54;;;;;;;19.37;9.30;;;6.80;99.90;;;;;;10341702;28;20231;-81
2023/01/13 17:28:18;;;;;;;19.80;8.60;;;6.70;99.90;;;;;;10328976;28;20280;-78
2023/01/13 17:33:39;;;;;;;16.87;8.83;;;6.70;99.90;;;;;;10344669;28;20196;-79
2023/01/13 17:39:01;;;;;;;35.07;15.53;;;6.50;99.90;;;;;;10347248;28;20223;-79
2023/01/13 17:44:22;;;;;;;92.10;52.27;;;6.40;99.90;;;;;;10363603;28;20232;-78
2023/01/13 17:49:43;;;;;;;47.33;18.90;;;6.30;99.90;;;;;;10358577;28;20206;-79
2023/01/13 17:55:05;;;;;;;27.63;11.53;;;6.20;99.90;;;;;;10377906;28;20216;-80
2023/01/13 18:00:28;;;;;;;27.30;11.33;;;6.20;99.90;;;;;;10380735;28;20202;-82
2023/01/13 18:05:50;;;;;;;17.70;9.70;;;6.10;99.90;;;;;;10392710;28;20194;-84
2023/01/13 18:11:12;;;;;;;18.03;11.33;;;6.20;99.90;;;;;;10376047;28;20487;-79
2023/01/13 18:16:33;;;;;;;23.80;12.77;;;6.30;99.90;;;;;;10360917;28;20240;-87
2023/01/13 18:27:39;;;;;;;8.93;5.40;;;6.30;99.90;;;;;;10178298;29;20287;-83
2023/01/13 18:33:00;;;;;;;13.90;5.87;;;6.30;99.90;;;;;;10177849;29;20214;-86
2023/01/13 18:38:22;;;;;;;47.00;24.90;;;6.40;99.90;;;;;;10180389;29;20243;-84
2023/01/13 18:43:43;;;;;;;21.50;10.60;;;6.40;99.90;;;;;;10180709;29;20205;-85
2023/01/13 18:49:04;;;;;;;38.00;18.63;;;6.40;99.90;;;;;;10181938;29;20274;-83
2023/01/13 18:54:25;;;;;;;18.73;8.53;;;6.40;99.90;;;;;;10201727;29;20274;-80
2023/01/13 18:59:47;;;;;;;15.33;7.90;;;6.50;99.90;;;;;;10159613;29;20299;-85
2023/01/13 19:05:09;;;;;;;15.07;6.27;;;6.50;99.90;;;;;;10289310;28;20216;-79
2023/01/13 19:10:31;;;;;;;20.03;12.00;;;6.30;99.90;;;;;;10293225;28;20498;-83
2023/01/13 19:15:52;;;;;;;49.53;25.90;;;6.20;99.90;;;;;;10294918;28;20477;-85
2023/01/13 19:21:14;;;;;;;58.23;31.60;;;6.10;99.90;;;;;;10318475;28;20247;-88
2023/01/13 19:26:36;;;;;;;42.07;21.60;;;5.90;99.90;;;;;;10289693;28;20206;-86
2023/01/13 19:31:57;;;;;;;21.83;13.63;;;5.90;99.90;;;;;;10291953;28;20402;-88
2023/01/13 19:37:19;;;;;;;10.67;5.40;;;5.80;99.90;;;;;;10270653;28;20245;-85
2023/01/13 19:48:22;;;;;;;6.67;4.10;;;5.70;99.90;;;;;;10345369;28;20199;-88
2023/01/13 19:53:43;;;;;;;10.00;5.03;;;5.60;99.90;;;;;;10341593;28;20195;-81
2023/01/13 19:59:04;;;;;;;11.13;5.83;;;5.50;99.90;;;;;;10344503;28;20210;-87
2023/01/13 20:04:37;;;;;;;14.53;8.63;;;5.40;99.90;;;;;;10335920;28;20198;-85
2023/01/13 20:10:00;;;;;;;18.60;11.03;;;5.30;99.90;;;;;;10331544;28;20199;-83
2023/01/13 20:15:22;;;;;;;10.13;5.47;;;5.30;99.90;;;;;;10335477;28;20232;-81
2023/01/13 20:20:43;;;;;;;19.60;7.80;;;5.30;99.90;;;;;;10303517;28;20296;-85
2023/01/13 20:26:06;;;;;;;11.30;6.37;;;5.20;99.90;;;;;;10290709;28;20391;-86
2023/01/13 20:31:28;;;;;;;13.77;5.00;;;5.20;99.90;;;;;;10276553;28;20207;-79
2023/01/13 20:36:50;;;;;;;12.33;6.70;;;5.20;99.90;;;;;;10265583;28;20237;-84
2023/01/13 20:42:30;;;;;;;11.63;5.30;;;5.20;99.90;;;;;;10262950;28;20200;-86
2023/01/13 20:47:52;;;;;;;14.93;7.27;;;5.10;99.90;;;;;;10236182;28;20509;-87
2023/01/13 20:53:14;;;;;;;16.20;6.77;;;5.10;99.90;;;;;;10279736;28;20483;-79
2023/01/13 20:58:37;;;;;;;11.73;5.50;;;5.10;99.90;;;;;;10264671;28;20232;-81
2023/01/13 21:03:59;;;;;;;11.37;4.97;;;5.10;99.90;;;;;;10252142;28;20500;-84
2023/01/13 21:09:28;;;;;;;10.27;4.50;;;5.10;99.90;;;;;;10251897;28;20264;-79
2023/01/13 21:20:31;;;;;;;11.93;4.97;;;5.00;99.90;;;;;;10318133;28;20243;-84
2023/01/13 21:25:52;;;;;;;11.13;4.00;;;5.00;99.90;;;;;;10287430;28;20236;-79
2023/01/13 21:31:14;;;;;;;11.00;4.93;;;5.10;99.90;;;;;;10275405;28;20210;-87
2023/01/13 21:36:35;;;;;;;23.83;9.50;;;5.10;99.90;;;;;;10263070;28;20232;-80
2023/01/13 21:47:48;;;;;;;15.13;6.50;;;5.20;99.90;;;;;;10321822;28;20231;-81
2023/01/13 21:53:09;;;;;;;10.97;4.30;;;5.20;99.90;;;;;;10329552;28;20503;-80
2023/01/13 21:58:30;;;;;;;12.20;4.73;;;5.20;99.90;;;;;;10313697;28;20231;-87
2023/01/13 22:09:31;;;;;;;15.40;6.80;;;5.30;99.90;;;;;;10358628;28;20197;-86
2023/01/13 22:14:54;;;;;;;12.73;6.73;;;5.30;99.90;;;;;;10320868;28;20213;-87
2023/01/13 22:20:16;;;;;;;12.17;5.10;;;5.50;99.90;;;;;;10294478;28;20234;-83
2023/01/13 22:25:37;;;;;;;10.13;3.90;;;5.50;99.90;;;;;;10312984;28;20307;-86
2023/01/13 22:31:06;;;;;;;10.73;3.77;;;5.60;99.90;;;;;;10312673;28;20212;-86
2023/01/13 22:36:28;;;;;;;14.00;5.60;;;5.60;99.90;;;;;;10295589;28;20231;-87
2023/01/13 22:41:49;;;;;;;12.67;4.37;;;5.60;99.90;;;;;;10347979;28;20221;-87
2023/01/13 22:47:11;;;;;;;19.30;5.23;;;5.70;99.90;;;;;;10353297;28;20202;-82
2023/01/13 22:52:33;;;;;;;8.40;3.73;;;5.70;99.90;;;;;;10360837;28;20204;-86
2023/01/13 22:57:54;;;;;;;10.53;3.27;;;5.60;99.90;;;;;;10355569;28;20532;-86
2023/01/13 23:03:16;;;;;;;9.87;3.60;;;5.70;99.90;;;;;;10386616;28;20190;-85
2023/01/13 23:08:38;;;;;;;5.53;2.13;;;5.60;99.90;;;;;;10403586;28;20230;-79
2023/01/13 23:14:02;;;;;;;7.97;2.40;;;5.70;99.90;;;;;;10368570;28;20203;-81
2023/01/13 23:19:24;;;;;;;9.07;3.13;;;5.70;99.90;;;;;;10327036;28;20429;-84
2023/01/13 23:24:45;;;;;;;6.60;2.83;;;5.60;99.90;;;;;;10312851;28;20213;-87
2023/01/13 23:30:08;;;;;;;8.47;2.97;;;5.60;99.90;;;;;;10324690;28;20208;-87
2023/01/13 23:35:30;;;;;;;6.57;2.70;;;5.60;99.90;;;;;;10329667;28;20200;-83
2023/01/13 23:40:52;;;;;;;7.93;2.70;;;5.60;99.90;;;;;;10351018;28;20194;-83
2023/01/13 23:46:15;;;;;;;10.03;3.80;;;5.60;99.90;;;;;;10371998;28;20199;-82
2023/01/13 23:51:36;;;;;;;9.87;2.90;;;5.70;99.90;;;;;;10366055;28;20399;-82
2023/01/13 23:56:58;;;;;;;5.20;2.30;;;5.60;99.90;;;;;;10374010;28;20225;-80
